sensor_id;sensor_type;location;lat;lon;timestamp;temperature;humidity
16781;DHT22;8507;50.056;8.248;2023-11-21T00:02:06;10.00;99.90
16781;DHT22;8507;50.056;8.248;2023-11-21T00:04:32;10.20;99.90
16781;DHT22;8507;50.056;8.248;2023-11-21T00:06:57;10.00;99.90
16781;DHT22;8507;50.056;8.248;2023-11-21T00:09:23;9.90;99.90
16781;DHT22;8507;50.056;8.248;2023-11-21T00:11:48;9.70;99.90
16781;DHT22;8507;50.056;8.248;2023-11-21T00:14:14;9.30;99.90
16781;DHT22;8507;50.056;8.248;2023-11-21T00:16:41;9.20;99.90
16781;DHT22;8507;50.056;8.248;2023-11-21T00:19:06;9.20;99.90
16781;DHT22;8507;50.056;8.248;2023-11-21T00:21:32;9.10;99.90
16781;DHT22;8507;50.056;8.248;2023-11-21T00:23:57;9.20;99.90
16781;DHT22;8507;50.056;8.248;2023-11-21T00:26:23;9.10;99.90
16781;DHT22;8507;50.056;8.248;2023-11-21T00:28:50;9.00;99.90
16781;DHT22;8507;50.056;8.248;2023-11-21T00:31:16;9.10;99.90
16781;DHT22;8507;50.056;8.248;2023-11-21T00:33:42;9.20;99.90
16781;DHT22;8507;50.056;8.248;2023-11-21T00:36:08;9.30;99.90
16781;DHT22;8507;50.056;8.248;2023-11-21T00:38:35;9.20;99.90
16781;DHT22;8507;50.056;8.248;2023-11-21T00:41:01;9.10;99.90
16781;DHT22;8507;50.056;8.248;2023-11-21T00:43:28;9.10;99.90
16781;DHT22;8507;50.056;8.248;2023-11-21T00:45:53;9.00;99.90
16781;DHT22;8507;50.056;8.248;2023-11-21T00:48:19;9.00;99.90
16781;DHT22;8507;50.056;8.248;2023-11-21T00:50:44;9.10;99.90
16781;DHT22;8507;50.056;8.248;2023-11-21T00:53:10;9.10;99.90
16781;DHT22;8507;50.056;8.248;2023-11-21T00:55:36;9.10;99.90
16781;DHT22;8507;50.056;8.248;2023-11-21T00:58:04;9.20;99.90
16781;DHT22;8507;50.056;8.248;2023-11-21T01:00:35;9.30;99.90
16781;DHT22;8507;50.056;8.248;2023-11-21T01:03:00;9.30;99.90
16781;DHT22;8507;50.056;8.248;2023-11-21T01:05:26;9.30;99.90
16781;DHT22;8507;50.056;8.248;2023-11-21T01:07:52;9.30;99.90
16781;DHT22;8507;50.056;8.248;2023-11-21T01:10:17;9.30;99.90
16781;DHT22;8507;50.056;8.248;2023-11-21T01:12:43;9.30;99.90
16781;DHT22;8507;50.056;8.248;2023-11-21T01:15:09;9.30;99.90
16781;DHT22;8507;50.056;8.248;2023-11-21T01:17:37;9.30;99.90
16781;DHT22;8507;50.056;8.248;2023-11-21T01:20:03;9.20;99.90
16781;DHT22;8507;50.056;8.248;2023-11-21T01:22:36;9.20;99.90
16781;DHT22;8507;50.056;8.248;2023-11-21T01:25:01;9.30;99.90
16781;DHT22;8507;50.056;8.248;2023-11-21T01:27:29;9.30;99.90
16781;DHT22;8507;50.056;8.248;2023-11-21T01:29:55;9.30;99.90
16781;DHT22;8507;50.056;8.248;2023-11-21T01:32:20;9.30;99.90
16781;DHT22;8507;50.056;8.248;2023-11-21T01:34:47;9.30;99.90
16781;DHT22;8507;50.056;8.248;2023-11-21T01:37:13;9.30;99.90
16781;DHT22;8507;50.056;8.248;2023-11-21T01:39:39;9.20;99.90
16781;DHT22;8507;50.056;8.248;2023-11-21T01:42:05;9.10;99.90
16781;DHT22;8507;50.056;8.248;2023-11-21T01:44:31;9.10;99.90
16781;DHT22;8507;50.056;8.248;2023-11-21T01:46:57;9.10;99.90
16781;DHT22;8507;50.056;8.248;2023-11-21T01:49:23;9.00;99.90
16781;DHT22;8507;50.056;8.248;2023-11-21T01:51:49;8.90;99.90
16781;DHT22;8507;50.056;8.248;2023-11-21T01:54:17;8.90;99.90
16781;DHT22;8507;50.056;8.248;2023-11-21T01:56:47;8.90;99.90
16781;DHT22;8507;50.056;8.248;2023-11-21T01:59:16;8.90;99.90
16781;DHT22;8507;50.056;8.248;2023-11-21T02:01:43;9.00;99.90
16781;DHT22;8507;50.056;8.248;2023-11-21T02:04:09;9.00;99.90
16781;DHT22;8507;50.056;8.248;2023-11-21T02:06:35;9.20;99.90
16781;DHT22;8507;50.056;8.248;2023-11-21T02:09:00;9.20;99.90
16781;DHT22;8507;50.056;8.248;2023-11-21T02:11:26;9.20;99.90
16781;DHT22;8507;50.056;8.248;2023-11-21T02:13:53;9.30;99.90
16781;DHT22;8507;50.056;8.248;2023-11-21T02:16:19;9.20;99.90
16781;DHT22;8507;50.056;8.248;2023-11-21T02:18:47;9.20;99.90
16781;DHT22;8507;50.056;8.248;2023-11-21T02:21:14;9.20;99.90
16781;DHT22;8507;50.056;8.248;2023-11-21T02:23:39;9.40;99.90
16781;DHT22;8507;50.056;8.248;2023-11-21T02:26:10;9.40;99.90
16781;DHT22;8507;50.056;8.248;2023-11-21T02:28:35;9.30;99.90
16781;DHT22;8507;50.056;8.248;2023-11-21T02:31:01;9.50;99.90
16781;DHT22;8507;50.056;8.248;2023-11-21T02:33:28;9.60;99.90
16781;DHT22;8507;50.056;8.248;2023-11-21T02:35:54;9.70;99.90
16781;DHT22;8507;50.056;8.248;2023-11-21T02:38:21;9.80;99.90
16781;DHT22;8507;50.056;8.248;2023-11-21T02:40:46;9.80;99.90
16781;DHT22;8507;50.056;8.248;2023-11-21T02:43:12;9.80;99.90
16781;DHT22;8507;50.056;8.248;2023-11-21T02:45:37;9.70;99.90
16781;DHT22;8507;50.056;8.248;2023-11-21T02:48:03;9.80;99.90
16781;DHT22;8507;50.056;8.248;2023-11-21T02:50:29;9.80;99.90
16781;DHT22;8507;50.056;8.248;2023-11-21T02:52:55;9.80;99.90
16781;DHT22;8507;50.056;8.248;2023-11-21T02:55:23;9.80;99.90
16781;DHT22;8507;50.056;8.248;2023-11-21T02:57:50;9.80;99.90
16781;DHT22;8507;50.056;8.248;2023-11-21T03:00:16;9.80;99.90
16781;DHT22;8507;50.056;8.248;2023-11-21T03:02:42;9.80;99.90
16781;DHT22;8507;50.056;8.248;2023-11-21T03:05:08;9.80;99.90
16781;DHT22;8507;50.056;8.248;2023-11-21T03:07:34;9.80;99.90
16781;DHT22;8507;50.056;8.248;2023-11-21T03:10:00;9.60;99.90
16781;DHT22;8507;50.056;8.248;2023-11-21T03:12:26;9.60;99.90
16781;DHT22;8507;50.056;8.248;2023-11-21T03:14:51;9.60;99.90
16781;DHT22;8507;50.056;8.248;2023-11-21T03:17:17;9.70;99.90
16781;DHT22;8507;50.056;8.248;2023-11-21T03:19:42;9.70;99.90
16781;DHT22;8507;50.056;8.248;2023-11-21T03:22:08;9.70;99.90
16781;DHT22;8507;50.056;8.248;2023-11-21T03:24:34;9.70;99.90
16781;DHT22;8507;50.056;8.248;2023-11-21T03:27:00;9.70;99.90
16781;DHT22;8507;50.056;8.248;2023-11-21T03:29:26;9.70;99.90
16781;DHT22;8507;50.056;8.248;2023-11-21T06:41:52;9.10;99.90
16781;DHT22;8507;50.056;8.248;2023-11-21T06:44:18;9.00;99.90
16781;DHT22;8507;50.056;8.248;2023-11-21T06:46:45;9.00;99.90
16781;DHT22;8507;50.056;8.248;2023-11-21T06:49:10;9.00;99.90
16781;DHT22;8507;50.056;8.248;2023-11-21T06:51:36;9.00;99.90
16781;DHT22;8507;50.056;8.248;2023-11-21T06:54:02;9.00;99.90
16781;DHT22;8507;50.056;8.248;2023-11-21T06:56:28;9.00;99.90
16781;DHT22;8507;50.056;8.248;2023-11-21T06:58:53;9.00;99.90
16781;DHT22;8507;50.056;8.248;2023-11-21T07:01:21;9.00;99.90
16781;DHT22;8507;50.056;8.248;2023-11-21T07:03:46;9.00;99.90
16781;DHT22;8507;50.056;8.248;2023-11-21T07:06:12;9.00;99.90
16781;DHT22;8507;50.056;8.248;2023-11-21T07:08:37;9.10;99.90
16781;DHT22;8507;50.056;8.248;2023-11-21T07:11:04;9.00;99.90
16781;DHT22;8507;50.056;8.248;2023-11-21T07:13:30;9.00;99.90
16781;DHT22;8507;50.056;8.248;2023-11-21T07:15:57;9.00;99.90
16781;DHT22;8507;50.056;8.248;2023-11-21T07:18:23;8.90;99.90
16781;DHT22;8507;50.056;8.248;2023-11-21T07:20:48;9.00;99.90
16781;DHT22;8507;50.056;8.248;2023-11-21T07:23:14;8.90;99.90
16781;DHT22;8507;50.056;8.248;2023-11-21T07:25:41;9.00;99.90
16781;DHT22;8507;50.056;8.248;2023-11-21T07:28:08;9.00;99.90
16781;DHT22;8507;50.056;8.248;2023-11-21T07:30:34;9.00;99.90
16781;DHT22;8507;50.056;8.248;2023-11-21T07:32:59;9.10;99.90
16781;DHT22;8507;50.056;8.248;2023-11-21T07:35:25;9.10;99.90
16781;DHT22;8507;50.056;8.248;2023-11-21T07:37:51;9.10;99.90
16781;DHT22;8507;50.056;8.248;2023-11-21T07:40:17;9.10;99.90
16781;DHT22;8507;50.056;8.248;2023-11-21T07:42:43;9.10;99.90
16781;DHT22;8507;50.056;8.248;2023-11-21T07:45:08;9.10;99.90
16781;DHT22;8507;50.056;8.248;2023-11-21T07:47:34;9.10;99.90
16781;DHT22;8507;50.056;8.248;2023-11-21T07:50:03;9.10;99.90
16781;DHT22;8507;50.056;8.248;2023-11-21T07:52:29;9.10;99.90
16781;DHT22;8507;50.056;8.248;2023-11-21T07:54:54;9.20;99.90
16781;DHT22;8507;50.056;8.248;2023-11-21T07:57:20;9.20;99.90
16781;DHT22;8507;50.056;8.248;2023-11-21T07:59:45;9.20;99.90
16781;DHT22;8507;50.056;8.248;2023-11-21T08:02:11;9.30;99.90
16781;DHT22;8507;50.056;8.248;2023-11-21T08:04:37;9.30;99.90
16781;DHT22;8507;50.056;8.248;2023-11-21T08:07:02;9.40;99.90
16781;DHT22;8507;50.056;8.248;2023-11-21T08:09:29;9.40;99.90
16781;DHT22;8507;50.056;8.248;2023-11-21T08:11:55;9.50;99.90
16781;DHT22;8507;50.056;8.248;2023-11-21T08:14:20;9.50;99.90
16781;DHT22;8507;50.056;8.248;2023-11-21T08:16:46;9.50;99.90
16781;DHT22;8507;50.056;8.248;2023-11-21T08:19:11;9.40;99.90
16781;DHT22;8507;50.056;8.248;2023-11-21T08:21:37;9.40;99.90
16781;DHT22;8507;50.056;8.248;2023-11-21T08:24:05;9.40;99.90
16781;DHT22;8507;50.056;8.248;2023-11-21T08:26:31;9.50;99.90
16781;DHT22;8507;50.056;8.248;2023-11-21T08:28:56;9.60;99.90
16781;DHT22;8507;50.056;8.248;2023-11-21T08:31:25;9.60;99.90
16781;DHT22;8507;50.056;8.248;2023-11-21T08:33:51;9.70;99.90
16781;DHT22;8507;50.056;8.248;2023-11-21T08:36:21;9.60;99.90
16781;DHT22;8507;50.056;8.248;2023-11-21T08:38:49;9.60;99.90
16781;DHT22;8507;50.056;8.248;2023-11-21T08:41:15;9.60;99.90
16781;DHT22;8507;50.056;8.248;2023-11-21T08:43:41;9.60;99.90
16781;DHT22;8507;50.056;8.248;2023-11-21T08:46:07;9.60;99.90
16781;DHT22;8507;50.056;8.248;2023-11-21T08:48:35;9.70;99.90
16781;DHT22;8507;50.056;8.248;2023-11-21T08:51:01;9.80;99.90
16781;DHT22;8507;50.056;8.248;2023-11-21T08:53:26;9.80;99.90
16781;DHT22;8507;50.056;8.248;2023-11-21T08:55:52;9.80;99.90
16781;DHT22;8507;50.056;8.248;2023-11-21T08:58:19;9.90;99.90
16781;DHT22;8507;50.056;8.248;2023-11-21T09:00:44;9.90;99.90
16781;DHT22;8507;50.056;8.248;2023-11-21T09:03:12;9.90;99.90
16781;DHT22;8507;50.056;8.248;2023-11-21T09:05:38;9.90;99.90
16781;DHT22;8507;50.056;8.248;2023-11-21T09:08:04;9.80;99.90
16781;DHT22;8507;50.056;8.248;2023-11-21T09:10:30;9.90;99.90
16781;DHT22;8507;50.056;8.248;2023-11-21T09:12:56;9.80;99.90
16781;DHT22;8507;50.056;8.248;2023-11-21T09:15:21;9.80;99.90
16781;DHT22;8507;50.056;8.248;2023-11-21T09:17:47;9.80;99.90
16781;DHT22;8507;50.056;8.248;2023-11-21T09:20:13;9.70;99.90
16781;DHT22;8507;50.056;8.248;2023-11-21T09:22:40;9.70;99.90
16781;DHT22;8507;50.056;8.248;2023-11-21T09:25:06;9.70;99.90
16781;DHT22;8507;50.056;8.248;2023-11-21T09:27:34;9.70;99.90
16781;DHT22;8507;50.056;8.248;2023-11-21T09:30:01;9.80;99.90
16781;DHT22;8507;50.056;8.248;2023-11-21T09:32:26;9.90;99.90
16781;DHT22;8507;50.056;8.248;2023-11-21T09:34:52;9.90;99.90
16781;DHT22;8507;50.056;8.248;2023-11-21T09:37:20;10.10;99.90
16781;DHT22;8507;50.056;8.248;2023-11-21T09:39:46;10.00;99.90
16781;DHT22;8507;50.056;8.248;2023-11-21T09:42:13;9.90;99.90
16781;DHT22;8507;50.056;8.248;2023-11-21T09:44:51;9.90;99.90
16781;DHT22;8507;50.056;8.248;2023-11-21T09:47:21;10.20;99.90
16781;DHT22;8507;50.056;8.248;2023-11-21T09:49:48;10.30;99.90
16781;DHT22;8507;50.056;8.248;2023-11-21T09:52:28;10.40;99.90
16781;DHT22;8507;50.056;8.248;2023-11-21T09:54:54;10.40;99.90
16781;DHT22;8507;50.056;8.248;2023-11-21T09:57:23;10.30;99.90
16781;DHT22;8507;50.056;8.248;2023-11-21T09:59:51;10.20;99.90
16781;DHT22;8507;50.056;8.248;2023-11-21T10:02:22;10.20;99.90
16781;DHT22;8507;50.056;8.248;2023-11-21T10:04:51;10.30;99.90
16781;DHT22;8507;50.056;8.248;2023-11-21T10:07:17;10.30;99.90
16781;DHT22;8507;50.056;8.248;2023-11-21T10:09:44;10.20;99.90
16781;DHT22;8507;50.056;8.248;2023-11-21T10:12:12;10.40;99.90
16781;DHT22;8507;50.056;8.248;2023-11-21T10:14:41;10.50;99.90
16781;DHT22;8507;50.056;8.248;2023-11-21T10:17:08;10.40;99.90
16781;DHT22;8507;50.056;8.248;2023-11-21T10:19:36;10.40;99.90
16781;DHT22;8507;50.056;8.248;2023-11-21T10:22:02;10.50;99.90
16781;DHT22;8507;50.056;8.248;2023-11-21T10:24:29;10.50;99.90
16781;DHT22;8507;50.056;8.248;2023-11-21T10:26:54;10.80;99.90
16781;DHT22;8507;50.056;8.248;2023-11-21T10:29:20;11.00;99.90
16781;DHT22;8507;50.056;8.248;2023-11-21T10:31:49;11.10;99.90
16781;DHT22;8507;50.056;8.248;2023-11-21T10:34:17;11.50;99.90
